Terminal Aerodrome Forecast
Issued by NWS Shreveport, LA

Home | Current Version | Previous Version | Text Only | Print | Product List | Glossary On
Versions: 1 2 3 4 5 6 7 8 9 10 11 12 13 14 15 16 17 18 19 20
840
FTUS44 KSHV 241747
TAFTYR
TAF
KTYR 241747Z 2418/2518 06006KT P6SM SCT040 BKN050 BKN070
      TEMPO 2418/2420 6SM -RA SCT004 BKN025
     FM250000 09004KT P6SM SCT080 BKN120
     FM250500 09004KT P6SM SCT035 BKN100
      TEMPO 2510/2514 5SM BR BKN015
     FM251400 08007KT P6SM BKN015=

USA.gov is the U.S. government's official web portal to all federal, state and local government web resources and services.